createdAt,value
2018-01-29T00:00:25.591Z,6.10
2018-01-29T00:01:25.626Z,6.00
2018-01-29T00:02:25.518Z,6.00
2018-01-29T00:03:25.499Z,6.50
2018-01-29T00:04:25.450Z,5.90
2018-01-29T00:05:25.398Z,6.10
2018-01-29T00:06:25.362Z,6.00
2018-01-29T00:07:25.328Z,6.00
2018-01-29T00:08:25.286Z,5.80
2018-01-29T00:09:25.242Z,5.50
2018-01-29T00:10:25.206Z,5.90
2018-01-29T00:11:25.167Z,5.70
2018-01-29T00:12:25.129Z,5.40
2018-01-29T00:13:25.088Z,5.50
2018-01-29T00:14:25.049Z,5.80
2018-01-29T00:15:25.020Z,5.70
2018-01-29T00:16:24.984Z,5.80
2018-01-29T00:17:25.010Z,5.70
2018-01-29T00:18:24.899Z,5.40
2018-01-29T00:19:24.858Z,5.40
2018-01-29T00:20:24.818Z,6.10
2018-01-29T00:21:24.781Z,5.60
2018-01-29T00:22:24.745Z,5.50
2018-01-29T00:23:24.707Z,5.80
2018-01-29T00:24:24.661Z,5.60
2018-01-29T00:25:24.625Z,5.10
2018-01-29T00:26:24.590Z,5.20
2018-01-29T00:27:24.587Z,5.40
2018-01-29T00:28:24.513Z,5.40
2018-01-29T00:29:24.469Z,5.60
2018-01-29T00:30:24.449Z,5.90
2018-01-29T00:31:24.402Z,6.00
2018-01-29T00:32:24.354Z,6.10
2018-01-29T00:33:24.321Z,6.10
2018-01-29T00:34:24.278Z,6.20
2018-01-29T00:35:24.241Z,6.00
2018-01-29T00:36:24.212Z,6.10
2018-01-29T00:37:24.164Z,6.40
2018-01-29T00:38:24.132Z,6.10
2018-01-29T00:39:24.083Z,5.80
2018-01-29T00:40:24.060Z,5.80
2018-01-29T00:41:24.015Z,6.30
2018-01-29T00:42:23.970Z,6.30
2018-01-29T00:43:23.930Z,6.20
2018-01-29T00:44:23.896Z,5.80
2018-01-29T00:45:23.852Z,6.20
2018-01-29T00:46:23.816Z,6.10
2018-01-29T00:47:23.776Z,6.20
2018-01-29T00:48:23.737Z,5.90
2018-01-29T00:49:23.702Z,6.00
2018-01-29T00:50:23.662Z,6.20
2018-01-29T00:51:23.631Z,6.20
2018-01-29T00:52:23.594Z,6.10
2018-01-29T00:53:23.551Z,6.00
2018-01-29T00:54:23.512Z,6.40
2018-01-29T00:55:23.468Z,6.40
2018-01-29T00:56:23.431Z,6.30
2018-01-29T00:57:23.391Z,6.10
2018-01-29T00:58:23.356Z,6.30
2018-01-29T00:59:23.317Z,6.20
2018-01-29T01:00:23.284Z,6.40
2018-01-29T01:01:23.236Z,5.90
2018-01-29T01:02:23.202Z,6.10
2018-01-29T01:03:23.161Z,6.30
2018-01-29T01:04:23.122Z,6.50
2018-01-29T01:05:23.094Z,6.30
2018-01-29T01:06:23.050Z,6.90
2018-01-29T01:07:23.008Z,6.40
2018-01-29T01:08:22.971Z,6.40
2018-01-29T01:09:22.937Z,6.50
2018-01-29T01:10:22.891Z,6.30
2018-01-29T01:11:22.852Z,6.60
2018-01-29T01:12:22.812Z,6.40
2018-01-29T01:13:22.776Z,5.90
2018-01-29T01:14:22.736Z,6.40
2018-01-29T01:15:22.705Z,7.00
2018-01-29T01:16:22.661Z,6.70
2018-01-29T01:17:22.622Z,7.10
2018-01-29T01:18:22.585Z,7.60
2018-01-29T01:19:22.546Z,7.60
2018-01-29T01:20:22.506Z,7.30
2018-01-29T01:21:22.492Z,7.70
2018-01-29T01:22:22.429Z,7.80
2018-01-29T01:23:22.392Z,7.40
2018-01-29T01:24:22.352Z,7.20
2018-01-29T01:25:22.322Z,7.10
2018-01-29T01:26:22.274Z,7.20
2018-01-29T01:27:22.236Z,7.30
2018-01-29T01:28:22.197Z,7.20
2018-01-29T01:29:22.159Z,7.60
2018-01-29T01:30:22.120Z,8.20
2018-01-29T01:31:22.085Z,8.30
2018-01-29T01:32:22.044Z,8.30
2018-01-29T01:33:22.025Z,8.40
2018-01-29T01:34:21.967Z,7.60
2018-01-29T01:35:21.929Z,8.20
2018-01-29T01:36:21.890Z,7.60
2018-01-29T01:37:21.876Z,7.90
2018-01-29T01:38:21.814Z,8.00
2018-01-29T01:39:21.800Z,8.20
2018-01-29T01:40:21.743Z,8.20
2018-01-29T01:41:21.727Z,8.30
2018-01-29T01:42:21.660Z,7.90
2018-01-29T01:43:21.634Z,8.10
2018-01-29T01:44:21.581Z,8.40
2018-01-29T01:45:21.551Z,7.90
2018-01-29T01:46:21.520Z,8.30
2018-01-29T01:47:21.482Z,8.10
2018-01-29T01:48:21.438Z,8.40
2018-01-29T01:49:21.396Z,8.60
2018-01-29T01:50:21.371Z,8.10
2018-01-29T01:51:21.353Z,9.20
2018-01-29T01:52:21.316Z,8.10
2018-01-29T01:53:21.243Z,8.00
2018-01-29T01:54:21.198Z,8.30
2018-01-29T01:55:21.167Z,8.70
2018-01-29T01:56:21.137Z,8.10
2018-01-29T01:57:21.084Z,7.40
2018-01-29T01:58:21.053Z,7.40
2018-01-29T01:59:21.020Z,8.00
2018-01-29T02:00:20.968Z,7.60
2018-01-29T02:01:20.929Z,8.20
2018-01-29T02:02:20.982Z,7.80
2018-01-29T02:03:20.863Z,7.50
2018-01-29T02:04:20.829Z,7.80
2018-01-29T02:05:20.790Z,7.80
2018-01-29T02:06:20.738Z,7.20
2018-01-29T02:07:20.706Z,6.80
2018-01-29T02:08:20.666Z,7.50
2018-01-29T02:09:20.620Z,7.50
2018-01-29T02:10:20.583Z,6.80
2018-01-29T02:11:20.555Z,6.70
2018-01-29T02:12:20.522Z,6.90
2018-01-29T02:13:20.467Z,6.70
2018-01-29T02:14:20.429Z,7.20
2018-01-29T02:15:20.394Z,6.90
2018-01-29T02:16:20.359Z,6.10
2018-01-29T02:17:20.319Z,6.40
2018-01-29T02:18:20.275Z,6.60
2018-01-29T02:19:20.236Z,6.40
2018-01-29T02:20:20.200Z,6.70
2018-01-29T02:21:20.168Z,6.30
2018-01-29T02:22:20.136Z,6.20
2018-01-29T02:23:20.091Z,6.20
2018-01-29T02:24:20.062Z,6.70
2018-01-29T02:25:20.005Z,6.20
2018-01-29T02:26:19.968Z,6.80
2018-01-29T02:27:19.937Z,6.10
2018-01-29T02:28:19.893Z,6.80
2018-01-29T02:29:19.853Z,6.30
2018-01-29T02:30:19.816Z,6.10
2018-01-29T02:31:19.798Z,6.50
2018-01-29T02:32:19.745Z,6.60
2018-01-29T02:33:19.700Z,6.30
2018-01-29T02:34:19.662Z,6.70
2018-01-29T02:35:19.662Z,6.70
2018-01-29T02:36:19.584Z,6.30
2018-01-29T02:37:19.549Z,6.40
2018-01-29T02:38:19.508Z,6.00
2018-01-29T02:39:19.473Z,6.20
2018-01-29T02:40:19.439Z,6.90
2018-01-29T02:41:19.399Z,6.50
2018-01-29T02:42:19.354Z,6.40
2018-01-29T02:43:19.315Z,7.00
2018-01-29T02:44:19.278Z,6.60
2018-01-29T02:45:19.239Z,6.60
2018-01-29T02:46:19.201Z,6.90
2018-01-29T02:47:19.169Z,7.00
2018-01-29T02:48:19.134Z,6.50
2018-01-29T02:49:19.086Z,6.80
2018-01-29T02:50:19.047Z,7.40
2018-01-29T02:51:19.016Z,6.90
2018-01-29T02:52:18.971Z,7.30
2018-01-29T02:53:18.934Z,7.10
2018-01-29T02:54:18.902Z,7.10
2018-01-29T02:55:18.858Z,7.80
2018-01-29T02:56:18.817Z,7.80
2018-01-29T02:57:18.782Z,7.90
2018-01-29T02:58:18.743Z,8.30
2018-01-29T02:59:18.706Z,8.20
2018-01-29T03:00:18.666Z,7.90
2018-01-29T03:01:18.626Z,8.20
2018-01-29T03:02:18.588Z,8.30
2018-01-29T03:03:18.551Z,7.80
2018-01-29T03:04:18.514Z,8.10
2018-01-29T03:05:18.477Z,8.50
2018-01-29T03:06:18.440Z,8.20
2018-01-29T03:07:18.408Z,8.20
2018-01-29T03:08:18.357Z,9.20
2018-01-29T03:09:18.319Z,9.10
2018-01-29T03:10:18.283Z,8.30
2018-01-29T03:11:18.250Z,9.00
2018-01-29T03:12:18.203Z,9.40
2018-01-29T03:13:18.164Z,8.80
2018-01-29T03:14:18.131Z,8.40
2018-01-29T03:15:18.103Z,9.00
2018-01-29T03:16:18.054Z,8.60
2018-01-29T03:17:18.014Z,8.70
2018-01-29T03:18:17.975Z,9.60
2018-01-29T03:19:17.946Z,8.40
2018-01-29T03:20:17.899Z,9.00
2018-01-29T03:21:17.861Z,9.40
2018-01-29T03:22:17.822Z,9.10
2018-01-29T03:23:17.787Z,8.80
2018-01-29T03:24:17.763Z,8.80
2018-01-29T03:25:17.708Z,9.10
2018-01-29T03:26:17.671Z,8.80
2018-01-29T03:27:17.639Z,9.00
2018-01-29T03:28:17.591Z,9.20
2018-01-29T03:29:17.568Z,9.10
2018-01-29T03:30:17.526Z,8.80
2018-01-29T03:31:17.482Z,9.60
2018-01-29T03:32:17.441Z,8.80
2018-01-29T03:33:17.403Z,9.30
2018-01-29T03:34:17.365Z,8.90
2018-01-29T03:35:17.339Z,8.70
2018-01-29T03:36:17.292Z,8.50
2018-01-29T03:37:17.250Z,9.80
2018-01-29T03:38:17.224Z,9.50
2018-01-29T03:39:17.184Z,9.10
2018-01-29T03:40:17.152Z,9.40
2018-01-29T03:41:17.153Z,9.60
2018-01-29T03:42:17.065Z,10.20
2018-01-29T03:43:17.029Z,10.20
2018-01-29T03:44:16.988Z,9.90
2018-01-29T03:45:16.945Z,10.00
2018-01-29T03:46:16.911Z,8.90
2018-01-29T03:47:16.875Z,9.10
2018-01-29T03:48:16.849Z,9.60
2018-01-29T03:49:16.803Z,9.50
2018-01-29T03:50:16.757Z,9.40
2018-01-29T03:51:16.719Z,9.00
2018-01-29T03:52:16.687Z,9.40
2018-01-29T03:53:16.641Z,9.70
2018-01-29T03:54:16.609Z,9.90
2018-01-29T03:55:16.565Z,9.80
2018-01-29T03:56:16.527Z,9.80
2018-01-29T03:57:16.489Z,9.00
2018-01-29T03:58:16.464Z,9.10
2018-01-29T03:59:16.420Z,8.70
2018-01-29T04:00:16.379Z,9.80
2018-01-29T04:01:16.340Z,9.40
2018-01-29T04:02:16.331Z,9.00
2018-01-29T04:03:16.267Z,8.50
2018-01-29T04:04:16.226Z,8.60
2018-01-29T04:05:16.184Z,8.80
2018-01-29T04:06:16.150Z,8.80
2018-01-29T04:07:16.118Z,9.50
2018-01-29T04:08:16.071Z,8.20
2018-01-29T04:09:16.055Z,8.80
2018-01-29T04:10:15.996Z,8.70
2018-01-29T04:11:15.959Z,8.30
2018-01-29T04:12:15.923Z,8.10
2018-01-29T04:13:15.894Z,8.30
2018-01-29T04:14:15.856Z,8.90
2018-01-29T04:15:15.811Z,8.20
2018-01-29T04:16:15.818Z,7.90
2018-01-29T04:17:15.736Z,7.80
2018-01-29T04:18:15.693Z,8.50
2018-01-29T04:19:15.653Z,8.30
2018-01-29T04:20:15.621Z,7.80
2018-01-29T04:21:15.598Z,8.70
2018-01-29T04:22:15.568Z,8.00
2018-01-29T04:23:15.512Z,7.80
2018-01-29T04:24:15.489Z,7.70
2018-01-29T04:25:15.431Z,8.00
2018-01-29T04:26:15.390Z,8.20
2018-01-29T04:27:15.351Z,7.50
2018-01-29T04:28:15.348Z,8.30
2018-01-29T04:29:15.274Z,8.30
2018-01-29T04:30:15.247Z,7.70
2018-01-29T04:31:15.211Z,7.90
2018-01-29T04:32:15.190Z,7.80
2018-01-29T04:33:15.120Z,8.00
2018-01-29T04:34:15.112Z,7.60
2018-01-29T04:35:15.048Z,7.50
2018-01-29T04:36:15.049Z,7.70
2018-01-29T04:37:14.983Z,8.00
2018-01-29T04:38:14.951Z,7.90
2018-01-29T04:39:14.896Z,8.20
2018-01-29T04:40:14.860Z,7.50
2018-01-29T04:41:14.832Z,8.20
2018-01-29T04:42:14.784Z,7.50
2018-01-29T04:43:14.749Z,8.40
2018-01-29T04:44:14.708Z,8.00
2018-01-29T04:45:14.667Z,8.10
2018-01-29T04:46:14.630Z,7.80
2018-01-29T04:47:14.602Z,8.30
2018-01-29T04:48:14.561Z,7.50
2018-01-29T04:49:14.516Z,8.00
2018-01-29T04:50:14.477Z,8.30
2018-01-29T04:51:14.439Z,7.50
2018-01-29T04:52:14.405Z,8.30
2018-01-29T04:53:14.366Z,8.20
2018-01-29T04:54:14.328Z,8.20
2018-01-29T04:55:14.288Z,8.20
2018-01-29T04:56:14.253Z,8.60
2018-01-29T04:57:14.220Z,9.30
2018-01-29T04:58:14.175Z,8.10
2018-01-29T04:59:14.137Z,8.90
2018-01-29T05:00:14.099Z,9.30
2018-01-29T05:01:14.060Z,9.00
2018-01-29T05:02:14.023Z,9.00
2018-01-29T05:03:13.985Z,9.20
2018-01-29T05:04:13.949Z,9.10
2018-01-29T05:05:13.918Z,9.50
2018-01-29T05:06:13.875Z,9.50
2018-01-29T05:07:13.834Z,9.30
2018-01-29T05:08:13.803Z,9.10
2018-01-29T05:09:13.759Z,9.20
2018-01-29T05:10:13.719Z,10.10
2018-01-29T05:11:13.683Z,9.70
2018-01-29T05:12:13.650Z,10.20
2018-01-29T05:13:13.604Z,9.40
2018-01-29T05:14:13.568Z,9.80
2018-01-29T05:15:13.528Z,10.10
2018-01-29T05:16:13.495Z,9.70
2018-01-29T05:17:13.452Z,9.50
2018-01-29T05:18:13.415Z,9.90
2018-01-29T05:19:13.379Z,10.00
2018-01-29T05:20:13.340Z,9.50
2018-01-29T05:21:13.308Z,9.60
2018-01-29T05:22:13.265Z,10.20
2018-01-29T05:23:13.228Z,10.50
2018-01-29T05:24:13.187Z,10.10
2018-01-29T05:25:13.146Z,9.90
2018-01-29T05:26:13.111Z,9.40
2018-01-29T05:27:13.073Z,9.90
2018-01-29T05:28:13.050Z,9.80
2018-01-29T05:29:12.994Z,9.90
2018-01-29T05:30:12.956Z,9.80
2018-01-29T05:31:12.920Z,9.80
2018-01-29T05:32:12.888Z,9.60
2018-01-29T05:33:12.846Z,9.60
2018-01-29T05:34:12.808Z,9.90
2018-01-29T05:35:12.775Z,10.00
2018-01-29T05:36:12.729Z,9.20
2018-01-29T05:37:12.692Z,9.40
2018-01-29T05:38:12.654Z,9.80
2018-01-29T05:39:12.616Z,8.70
2018-01-29T05:40:12.590Z,9.30
2018-01-29T05:41:12.538Z,9.50
2018-01-29T05:42:12.508Z,9.10
2018-01-29T05:43:12.467Z,8.90
2018-01-29T05:44:12.424Z,9.30
2018-01-29T05:45:12.385Z,8.70
2018-01-29T05:46:12.348Z,8.80
2018-01-29T05:47:12.309Z,8.20
2018-01-29T05:48:12.292Z,8.80
2018-01-29T05:49:12.235Z,8.90
2018-01-29T05:50:12.196Z,9.10
2018-01-29T05:51:12.158Z,8.80
2018-01-29T05:52:12.121Z,8.40
2018-01-29T05:53:12.093Z,8.80
2018-01-29T05:54:12.044Z,8.90
2018-01-29T05:55:12.011Z,8.50
2018-01-29T05:56:11.975Z,8.70
2018-01-29T05:57:11.935Z,8.30
2018-01-29T05:58:11.895Z,8.60
2018-01-29T05:59:11.854Z,8.30
2018-01-29T06:00:11.816Z,8.10
2018-01-29T06:01:11.778Z,8.00
2018-01-29T06:02:11.765Z,8.00
2018-01-29T06:03:11.702Z,7.90
2018-01-29T06:04:11.708Z,8.20
2018-01-29T06:05:11.633Z,8.00
2018-01-29T06:06:11.591Z,7.80
2018-01-29T06:07:11.547Z,7.70
2018-01-29T06:08:11.514Z,7.80
2018-01-29T06:09:11.478Z,8.10
2018-01-29T06:10:11.438Z,8.80
2018-01-29T06:11:11.406Z,8.30
2018-01-29T06:12:11.368Z,8.00
2018-01-29T06:13:11.322Z,7.70
2018-01-29T06:14:11.287Z,8.00
2018-01-29T06:15:11.250Z,8.10
2018-01-29T06:16:11.209Z,7.60
2018-01-29T06:17:11.177Z,7.90
2018-01-29T06:18:11.135Z,7.90
2018-01-29T06:19:11.104Z,8.20
2018-01-29T06:20:11.068Z,8.80
2018-01-29T06:21:11.016Z,7.90
2018-01-29T06:22:10.979Z,8.70
2018-01-29T06:23:10.944Z,8.40
2018-01-29T06:24:10.912Z,8.40
2018-01-29T06:25:10.867Z,8.60
2018-01-29T06:26:10.832Z,8.60
2018-01-29T06:27:10.796Z,8.50
2018-01-29T06:28:10.753Z,7.90
2018-01-29T06:29:10.718Z,8.10
2018-01-29T06:30:10.711Z,8.40
2018-01-29T06:31:10.644Z,8.50
2018-01-29T06:32:10.604Z,8.60
2018-01-29T06:33:10.569Z,8.90
2018-01-29T06:34:10.535Z,8.80
2018-01-29T06:35:10.494Z,8.70
2018-01-29T06:36:10.457Z,8.60
2018-01-29T06:37:10.414Z,8.40
2018-01-29T06:38:10.379Z,8.80
2018-01-29T06:39:10.339Z,8.20
2018-01-29T06:40:10.302Z,7.80
2018-01-29T06:41:10.260Z,8.70
2018-01-29T06:42:10.221Z,8.20
2018-01-29T06:43:10.185Z,8.40
2018-01-29T06:44:10.150Z,8.20
2018-01-29T06:45:10.118Z,8.10
2018-01-29T06:46:10.073Z,7.70
2018-01-29T06:47:10.038Z,8.20
2018-01-29T06:48:09.996Z,7.90
2018-01-29T06:49:09.991Z,7.60
2018-01-29T06:50:09.923Z,7.40
2018-01-29T06:51:09.883Z,7.40
2018-01-29T06:52:09.847Z,7.10
2018-01-29T06:53:09.813Z,7.40
2018-01-29T06:54:09.776Z,7.30
2018-01-29T06:55:09.731Z,6.80
2018-01-29T06:56:09.734Z,6.30
2018-01-29T06:57:09.662Z,6.80
2018-01-29T06:58:09.641Z,6.40
2018-01-29T06:59:09.584Z,6.70
2018-01-29T07:00:09.555Z,6.40
2018-01-29T07:01:09.512Z,5.80
2018-01-29T07:02:09.466Z,5.90
2018-01-29T07:03:09.434Z,6.30
2018-01-29T07:04:09.401Z,5.90
2018-01-29T07:05:09.351Z,5.50
2018-01-29T07:06:09.388Z,5.80
2018-01-29T07:07:09.280Z,5.20
2018-01-29T07:08:09.265Z,5.50
2018-01-29T07:09:09.202Z,5.80
2018-01-29T07:10:09.186Z,5.50
2018-01-29T07:11:09.131Z,4.90
2018-01-29T07:12:09.657Z,4.80
2018-01-29T07:13:09.112Z,4.70
2018-01-29T07:14:09.037Z,5.20
2018-01-29T07:15:08.975Z,4.50
2018-01-29T07:16:08.972Z,4.80
2018-01-29T07:17:08.901Z,4.80
2018-01-29T07:18:08.868Z,4.80
2018-01-29T07:19:08.901Z,5.00
2018-01-29T07:20:08.804Z,5.00
2018-01-29T07:21:08.773Z,4.90
2018-01-29T07:22:08.717Z,4.90
2018-01-29T07:23:08.754Z,4.60
2018-01-29T07:24:08.642Z,4.50
2018-01-29T07:25:08.601Z,4.50
2018-01-29T07:26:08.559Z,4.30
2018-01-29T07:27:08.522Z,4.40
2018-01-29T07:28:08.499Z,4.30
2018-01-29T07:29:08.472Z,4.40
2018-01-29T07:30:08.413Z,4.30
2018-01-29T07:31:08.392Z,4.50
2018-01-29T07:32:08.346Z,3.80
2018-01-29T07:33:08.293Z,4.20
2018-01-29T07:34:08.257Z,4.00
2018-01-29T07:35:08.219Z,4.10
2018-01-29T07:36:08.183Z,3.80
2018-01-29T07:37:08.192Z,3.80
2018-01-29T07:38:08.117Z,4.10
2018-01-29T07:39:08.080Z,3.60
2018-01-29T07:40:09.571Z,3.90
2018-01-29T07:41:07.994Z,3.90
2018-01-29T07:42:07.955Z,3.50
2018-01-29T07:43:07.921Z,4.00
2018-01-29T07:44:07.879Z,3.90
2018-01-29T07:45:07.850Z,3.50
2018-01-29T07:46:07.804Z,3.60
2018-01-29T07:47:07.768Z,3.40
2018-01-29T07:48:07.737Z,3.40
2018-01-29T07:49:07.692Z,3.40
2018-01-29T07:50:07.654Z,3.40
2018-01-29T07:51:07.617Z,3.50
2018-01-29T07:52:07.577Z,3.50
2018-01-29T07:53:07.541Z,3.70
2018-01-29T07:54:07.511Z,3.60
2018-01-29T07:55:07.462Z,3.30
2018-01-29T07:56:07.424Z,3.50
2018-01-29T07:57:07.397Z,3.00
2018-01-29T07:58:07.356Z,3.70
2018-01-29T07:59:07.318Z,3.10
2018-01-29T08:00:07.276Z,2.80
2018-01-29T08:01:07.241Z,2.90
2018-01-29T08:02:07.199Z,3.10
2018-01-29T08:03:07.161Z,3.20
2018-01-29T08:04:07.124Z,3.30
2018-01-29T08:05:07.093Z,3.00
2018-01-29T08:06:07.055Z,3.20
2018-01-29T08:07:07.013Z,3.00
2018-01-29T08:08:06.988Z,2.90
2018-01-29T08:09:06.938Z,2.60
2018-01-29T08:10:06.897Z,3.10
2018-01-29T08:11:06.864Z,3.40
2018-01-29T08:12:06.841Z,2.90
2018-01-29T08:13:06.786Z,2.80
2018-01-29T08:14:06.752Z,2.90
2018-01-29T08:15:06.722Z,2.80
2018-01-29T08:16:06.680Z,3.00
2018-01-29T08:17:06.642Z,2.90
2018-01-29T08:18:06.602Z,2.90
2018-01-29T08:19:06.569Z,2.80
2018-01-29T08:20:06.526Z,2.90
2018-01-29T08:21:06.490Z,2.80
2018-01-29T08:22:06.451Z,2.90
2018-01-29T08:23:06.444Z,2.80
2018-01-29T08:24:06.381Z,2.80
2018-01-29T08:25:06.377Z,3.00
2018-01-29T08:26:06.304Z,3.10
2018-01-29T08:27:06.262Z,3.40
2018-01-29T08:28:06.225Z,3.30
2018-01-29T08:29:06.184Z,3.00
2018-01-29T08:30:06.148Z,3.40
2018-01-29T08:31:06.113Z,2.90
2018-01-29T08:32:06.074Z,3.40
2018-01-29T08:33:06.036Z,3.00
2018-01-29T08:34:06.012Z,3.30
2018-01-29T08:35:06.033Z,3.40
2018-01-29T08:36:05.928Z,3.30
2018-01-29T08:37:05.885Z,3.20
2018-01-29T08:38:05.871Z,3.00
2018-01-29T08:39:05.813Z,3.40
2018-01-29T08:40:05.779Z,3.30
2018-01-29T08:41:05.736Z,3.30
2018-01-29T08:42:05.698Z,3.40
2018-01-29T08:43:05.666Z,3.80
2018-01-29T08:44:05.627Z,3.40
2018-01-29T08:45:05.615Z,3.60
2018-01-29T08:46:05.552Z,3.40
2018-01-29T08:47:05.518Z,3.80
2018-01-29T08:48:05.479Z,3.90
2018-01-29T08:49:05.443Z,3.80
2018-01-29T08:50:05.403Z,4.10
2018-01-29T08:51:05.361Z,3.80
2018-01-29T08:52:05.328Z,4.10
2018-01-29T08:53:05.381Z,4.20
2018-01-29T08:54:05.252Z,4.10
2018-01-29T08:55:05.217Z,4.30
2018-01-29T08:56:05.197Z,4.20
2018-01-29T08:57:05.137Z,4.40
2018-01-29T08:58:05.098Z,4.40
2018-01-29T08:59:05.067Z,4.30
2018-01-29T09:00:05.022Z,4.60
2018-01-29T09:01:04.986Z,4.90
2018-01-29T09:02:04.949Z,4.20
2018-01-29T09:03:04.918Z,4.70
2018-01-29T09:04:04.906Z,4.50
2018-01-29T09:05:04.892Z,4.30
2018-01-29T09:06:04.799Z,4.30
2018-01-29T09:07:04.764Z,4.40
2018-01-29T09:08:04.727Z,4.80
2018-01-29T09:09:04.685Z,4.80
2018-01-29T09:10:04.674Z,4.60
2018-01-29T09:11:04.616Z,4.30
2018-01-29T09:12:04.576Z,4.50
2018-01-29T09:13:04.537Z,4.80
2018-01-29T09:14:04.498Z,4.50
2018-01-29T09:15:04.473Z,4.70
2018-01-29T09:16:04.424Z,4.90
2018-01-29T09:17:04.388Z,4.40
2018-01-29T09:18:04.350Z,4.70
2018-01-29T09:19:04.338Z,4.30
2018-01-29T09:20:04.321Z,4.80
2018-01-29T09:21:04.251Z,4.50
2018-01-29T09:22:04.220Z,4.60
2018-01-29T09:23:04.173Z,4.70
2018-01-29T09:24:04.132Z,4.50
2018-01-29T09:25:04.091Z,4.80
2018-01-29T09:26:04.059Z,4.50
2018-01-29T09:27:04.014Z,5.90
2018-01-29T09:28:03.981Z,4.50
2018-01-29T09:29:03.945Z,5.20
2018-01-29T09:30:03.904Z,4.80
2018-01-29T09:31:03.883Z,4.40
2018-01-29T09:32:03.862Z,4.80
2018-01-29T09:33:03.791Z,4.70
2018-01-29T09:34:03.760Z,4.50
2018-01-29T09:35:03.719Z,4.70
2018-01-29T09:36:03.678Z,5.20
2018-01-29T09:37:03.640Z,4.90
2018-01-29T09:38:03.609Z,4.90
2018-01-29T09:39:03.574Z,4.80
2018-01-29T09:40:03.532Z,4.80
2018-01-29T09:41:03.503Z,5.10
2018-01-29T09:42:03.475Z,5.00
2018-01-29T09:43:03.422Z,5.40
2018-01-29T09:44:03.419Z,5.00
2018-01-29T09:45:03.349Z,4.90
2018-01-29T09:46:03.321Z,5.20
2018-01-29T09:47:03.278Z,4.80
2018-01-29T09:48:03.247Z,5.10
2018-01-29T09:49:03.227Z,5.00
2018-01-29T09:50:03.163Z,5.00
2018-01-29T09:51:03.134Z,5.20
2018-01-29T09:52:03.090Z,4.90
2018-01-29T09:53:03.054Z,5.30
2018-01-29T09:54:03.029Z,5.40
2018-01-29T09:55:02.980Z,5.10
2018-01-29T09:56:02.974Z,4.90
2018-01-29T09:57:02.932Z,4.90
2018-01-29T09:58:02.901Z,5.20
2018-01-29T09:59:02.837Z,5.10
2018-01-29T10:00:02.791Z,5.00
2018-01-29T10:01:02.753Z,4.90
2018-01-29T10:02:02.721Z,5.00
2018-01-29T10:03:02.686Z,5.00
2018-01-29T10:04:02.659Z,5.00
2018-01-29T10:05:02.605Z,5.60
2018-01-29T10:06:02.575Z,5.00
2018-01-29T10:07:02.557Z,5.00
2018-01-29T10:08:02.501Z,5.50
2018-01-29T10:09:02.452Z,5.00
2018-01-29T10:10:02.424Z,5.20
2018-01-29T10:11:02.376Z,5.30
2018-01-29T10:12:02.372Z,5.10
2018-01-29T10:13:02.302Z,5.00
2018-01-29T10:14:02.278Z,4.70
2018-01-29T10:15:02.230Z,5.40
2018-01-29T10:16:02.187Z,5.20
2018-01-29T10:17:02.160Z,5.40
2018-01-29T10:18:02.125Z,5.30
2018-01-29T10:19:02.075Z,5.00
2018-01-29T10:20:02.040Z,5.40
2018-01-29T10:21:02.091Z,5.00
2018-01-29T10:22:01.964Z,5.40
2018-01-29T10:23:01.933Z,5.00
2018-01-29T10:24:01.893Z,4.50
2018-01-29T10:25:01.855Z,4.80
2018-01-29T10:26:01.823Z,5.30
2018-01-29T10:27:01.778Z,4.90
2018-01-29T10:28:01.743Z,4.60
2018-01-29T10:29:01.703Z,4.40
2018-01-29T10:30:01.687Z,4.70
2018-01-29T10:31:01.630Z,4.80
2018-01-29T10:32:01.601Z,4.80
2018-01-29T10:33:01.551Z,4.70
2018-01-29T10:34:01.516Z,4.70
2018-01-29T10:35:01.478Z,4.60
2018-01-29T10:36:01.443Z,4.30
2018-01-29T10:37:01.408Z,4.70
2018-01-29T10:38:01.365Z,4.40
2018-01-29T10:39:01.329Z,4.80
2018-01-29T10:40:01.291Z,4.70
2018-01-29T10:41:01.253Z,4.70
2018-01-29T10:42:01.224Z,4.60
2018-01-29T10:43:01.179Z,4.60
2018-01-29T10:44:01.143Z,5.10
2018-01-29T10:45:01.107Z,4.70
2018-01-29T10:46:01.070Z,4.80
2018-01-29T10:47:01.031Z,4.80
2018-01-29T10:48:00.995Z,4.60
2018-01-29T10:49:00.956Z,4.50
2018-01-29T10:50:00.986Z,4.30
2018-01-29T10:51:00.882Z,5.40
2018-01-29T10:52:00.845Z,4.80
2018-01-29T10:53:00.808Z,4.60
2018-01-29T10:54:00.778Z,4.80
2018-01-29T10:55:00.732Z,5.10
2018-01-29T10:56:00.695Z,5.40
2018-01-29T10:57:00.673Z,5.30
2018-01-29T10:58:00.642Z,5.40
2018-01-29T10:59:00.584Z,5.60
2018-01-29T11:00:00.549Z,5.00
2018-01-29T11:01:00.511Z,5.20
2018-01-29T11:02:00.472Z,5.50
2018-01-29T11:03:00.447Z,5.40
2018-01-29T11:04:00.400Z,5.70
2018-01-29T11:05:00.362Z,5.70
2018-01-29T11:06:00.325Z,5.20
2018-01-29T11:07:00.284Z,5.50
2018-01-29T11:08:00.259Z,5.60
2018-01-29T11:09:00.210Z,5.00
2018-01-29T11:10:00.192Z,5.50
2018-01-29T11:11:00.141Z,5.00
2018-01-29T11:12:00.103Z,5.50
2018-01-29T11:13:00.064Z,5.40
2018-01-29T11:14:00.039Z,5.80
2018-01-29T11:14:59.988Z,5.90
2018-01-29T11:16:00.025Z,5.40
2018-01-29T11:16:59.938Z,5.70
2018-01-29T11:17:59.877Z,5.60
2018-01-29T11:18:59.838Z,5.30
2018-01-29T11:19:59.825Z,5.60
2018-01-29T11:20:59.774Z,5.60
2018-01-29T11:21:59.725Z,5.60
2018-01-29T11:22:59.690Z,6.00
2018-01-29T11:23:59.655Z,5.50
2018-01-29T11:24:59.616Z,5.80
2018-01-29T11:25:59.580Z,5.80
2018-01-29T11:26:59.540Z,5.70
2018-01-29T11:27:59.518Z,5.60
2018-01-29T11:28:59.466Z,6.00
2018-01-29T11:29:59.429Z,5.60
2018-01-29T11:30:59.391Z,5.80
2018-01-29T11:31:59.354Z,5.60
2018-01-29T11:32:59.349Z,7.00
2018-01-29T11:33:59.287Z,5.80
2018-01-29T11:34:59.241Z,6.00
2018-01-29T11:35:59.205Z,5.30
2018-01-29T11:36:59.168Z,5.80
2018-01-29T11:37:59.129Z,5.20
2018-01-29T11:38:59.090Z,5.30
2018-01-29T11:39:59.056Z,5.90
2018-01-29T11:40:59.026Z,5.10
2018-01-29T11:41:58.995Z,5.70
2018-01-29T11:42:58.943Z,5.20
2018-01-29T11:43:58.957Z,5.30
2018-01-29T11:44:58.876Z,5.20
2018-01-29T11:45:58.831Z,5.00
2018-01-29T11:46:58.820Z,5.00
2018-01-29T11:47:58.763Z,4.80
2018-01-29T11:48:58.726Z,5.10
2018-01-29T11:49:58.700Z,4.90
2018-01-29T11:50:58.649Z,4.70
2018-01-29T11:51:58.611Z,4.70
2018-01-29T11:52:58.573Z,4.40
2018-01-29T11:53:58.534Z,4.50
2018-01-29T11:54:58.498Z,4.20
2018-01-29T11:55:58.459Z,4.50
2018-01-29T11:56:58.421Z,4.20
2018-01-29T11:57:58.386Z,4.10
2018-01-29T11:58:58.357Z,4.00
2018-01-29T11:59:58.319Z,4.30
2018-01-29T12:00:58.278Z,4.80
2018-01-29T12:01:58.256Z,4.00
2018-01-29T12:02:58.201Z,3.50
2018-01-29T12:03:58.183Z,4.00
2018-01-29T12:04:58.139Z,4.00
2018-01-29T12:05:58.196Z,3.40
2018-01-29T12:06:58.052Z,3.60
2018-01-29T12:07:58.116Z,3.60
2018-01-29T12:08:58.006Z,3.40
2018-01-29T12:09:57.947Z,3.10
2018-01-29T12:10:57.904Z,3.30
2018-01-29T12:11:57.878Z,3.20
2018-01-29T12:12:57.849Z,3.50
2018-01-29T12:13:57.804Z,3.30
2018-01-29T12:14:57.761Z,3.00
2018-01-29T12:15:57.746Z,3.10
2018-01-29T12:16:57.721Z,3.40
2018-01-29T12:17:57.646Z,2.90
2018-01-29T12:18:57.608Z,3.10
2018-01-29T12:19:57.577Z,3.10
2018-01-29T12:20:57.529Z,3.00
2018-01-29T12:21:57.561Z,3.60
2018-01-29T12:22:57.457Z,2.50
2018-01-29T12:23:57.439Z,2.80
2018-01-29T12:24:57.389Z,3.50
2018-01-29T12:25:57.404Z,3.00
2018-01-29T12:26:57.306Z,3.20
2018-01-29T12:27:57.269Z,3.30
2018-01-29T12:28:57.238Z,3.50
2018-01-29T12:29:57.217Z,3.20
2018-01-29T12:30:57.173Z,3.00
2018-01-29T12:31:57.126Z,3.10
2018-01-29T12:32:57.086Z,3.30
2018-01-29T12:33:57.046Z,2.70
2018-01-29T12:34:57.041Z,3.10
2018-01-29T12:35:56.976Z,2.90
2018-01-29T12:36:56.934Z,2.80
2018-01-29T12:37:56.911Z,3.10
2018-01-29T12:38:56.879Z,3.30
2018-01-29T12:39:56.853Z,3.70
2018-01-29T12:40:56.891Z,3.40
2018-01-29T12:41:56.762Z,3.50
2018-01-29T12:42:56.714Z,3.00
2018-01-29T12:43:56.758Z,2.90
2018-01-29T12:44:56.759Z,3.60
2018-01-29T12:45:56.605Z,3.30
2018-01-29T12:46:56.562Z,3.30
2018-01-29T12:47:56.527Z,3.20
2018-01-29T12:48:56.496Z,3.30
2018-01-29T12:49:56.452Z,3.40
2018-01-29T12:50:56.416Z,3.40
2018-01-29T12:51:56.377Z,3.40
2018-01-29T12:52:56.350Z,3.20
2018-01-29T12:53:56.305Z,3.30
2018-01-29T12:54:56.268Z,2.90
2018-01-29T12:55:56.234Z,3.60
2018-01-29T12:56:56.195Z,3.50
2018-01-29T12:57:56.156Z,3.20
2018-01-29T12:58:56.125Z,3.40
2018-01-29T12:59:56.088Z,3.30
2018-01-29T13:00:56.048Z,3.60
2018-01-29T13:01:56.015Z,3.40
2018-01-29T13:02:55.975Z,3.40
2018-01-29T13:03:55.940Z,3.30
2018-01-29T13:04:55.902Z,3.40
2018-01-29T13:05:55.867Z,3.50
2018-01-29T13:06:55.835Z,3.60
2018-01-29T13:07:55.793Z,3.90
2018-01-29T13:08:55.755Z,3.20
2018-01-29T13:09:55.724Z,3.40
2018-01-29T13:10:55.681Z,3.40
2018-01-29T13:11:55.644Z,3.50
2018-01-29T13:12:55.609Z,3.10
2018-01-29T13:13:55.650Z,3.70
2018-01-29T13:14:55.534Z,3.30
2018-01-29T13:15:55.498Z,3.50
2018-01-29T13:16:55.459Z,3.30
2018-01-29T13:17:55.433Z,3.30